Terminal Aerodrome Forecast
Issued by NWS Cleveland, OH

Home | Current Version | Previous Version | Text Only | Print | Product List | Glossary On
Versions: 1 2 3 4 5 6 7 8 9 10 11 12 13 14 15 16 17 18 19
000
FTUS41 KCLE 282329
TAFTOL
TAF
KTOL 282329Z 2900/2924 VRB03KT P6SM SCT150 OVC200
      TEMPO 2900/2901 6SM -SHRA BKN080 OVC150
     FM290800 36004KT 6SM BR FEW008
      TEMPO 2910/2912 3SM BR
     FM291400 06005KT P6SM FEW050=

USA.gov is the U.S. government's official web portal to all federal, state and local government web resources and services.